.
WxDataArchive / Data Records for 2011-02-15
2011-02-14 February 2011 2011-02-16

Data Records for Tuesday, 15 February 2011

Time	Temp	Chill	HIndex	Humid	Dewpt	 Wind 	HiWind	WindDir	Rain 	Barom 
-----	----	-----	------	-----	-----	------	------	-------	-----	----- 
00:00	26.0	26.0	26.0	72	18.2	0	0	---	0.00	30.383 
00:05	26.0	26.0	26.0	72	18.2	0	1	270	0.00	30.383 
00:10	25.8	25.8	25.8	72	18.0	0	1	270	0.00	30.383 
00:15	25.7	25.7	25.7	72	17.9	0	1	270	0.00	30.383 
00:20	25.7	25.7	25.7	72	17.9	0	0	---	0.00	30.383 
00:25	25.6	25.6	25.6	73	18.2	0	0	---	0.00	30.383 
00:30	25.3	25.3	25.3	73	17.9	0	0	---	0.00	30.391 
00:35	25.1	25.1	25.1	73	17.7	0	0	---	0.00	30.391 
00:40	25.0	25.0	25.0	73	17.6	0	0	---	0.00	30.391 
00:45	24.8	24.8	24.8	74	17.7	0	0	---	0.00	30.394 
00:50	24.7	24.7	24.7	74	17.6	0	0	---	0.00	30.394 
00:55	24.7	24.7	24.7	74	17.6	0	0	---	0.00	30.394 
01:00	24.5	24.5	24.5	74	17.4	0	0	---	0.00	30.396 
01:05	24.4	24.4	24.4	74	17.3	0	0	---	0.00	30.396 
01:10	24.2	24.2	24.2	74	17.1	0	0	---	0.00	30.396 
01:15	24.1	24.1	24.1	74	17.0	0	0	---	0.00	30.401 
01:20	23.8	23.8	23.8	74	16.7	0	0	---	0.00	30.401 
01:25	23.5	23.5	23.5	75	16.8	0	0	---	0.00	30.401 
01:30	23.3	23.3	23.3	76	16.9	0	0	---	0.00	30.400 
01:35	23.0	23.0	23.0	76	16.6	0	0	---	0.00	30.400 
01:40	22.9	22.9	22.9	76	16.5	0	0	---	0.00	30.400 
01:45	22.5	22.5	22.5	77	16.4	0	0	---	0.00	30.402 
01:50	22.2	22.2	22.2	77	16.1	0	0	---	0.00	30.402 
01:55	21.9	21.9	21.9	77	15.8	0	0	---	0.00	30.402 
02:00	21.6	21.6	21.6	78	15.8	0	0	---	0.00	30.408 
02:05	21.3	21.3	21.3	78	15.5	0	0	---	0.00	30.408 
02:10	21.0	21.0	21.0	79	15.5	0	0	---	0.00	30.408 
02:15	20.6	20.6	20.6	79	15.1	0	0	---	0.00	30.407 
02:20	20.5	20.5	20.5	79	15.0	0	0	---	0.00	30.407 
02:25	20.2	20.2	20.2	80	15.0	0	0	---	0.00	30.407 
02:30	19.9	19.9	19.9	80	14.7	0	0	---	0.00	30.407 
02:35	19.7	19.7	19.7	81	14.8	0	0	---	0.00	30.407 
02:40	19.4	19.4	19.4	81	14.5	0	0	---	0.00	30.407 
02:45	19.1	19.1	19.1	81	14.2	0	0	---	0.00	30.413 
02:50	19.1	19.1	19.1	82	14.5	0	0	---	0.00	30.413 
02:55	19.1	19.1	19.1	83	14.8	0	0	---	0.00	30.413 
03:00	18.9	18.9	18.9	83	14.6	0	0	---	0.00	30.419 
03:05	18.8	18.8	18.8	83	14.5	0	0	---	0.00	30.419 
03:10	18.4	18.4	18.4	83	14.1	0	0	---	0.00	30.419 
03:15	18.3	18.3	18.3	83	14.0	0	0	---	0.00	30.422 
03:20	18.1	18.1	18.1	84	14.1	0	0	---	0.00	30.422 
03:25	17.8	17.8	17.8	84	13.8	0	0	---	0.00	30.422 
03:30	17.7	17.7	17.7	84	13.7	0	0	---	0.00	30.425 
03:35	17.5	17.5	17.5	84	13.5	0	0	---	0.00	30.425 
03:40	17.3	17.3	17.3	84	13.3	0	0	---	0.00	30.425 
03:45	17.2	17.2	17.2	84	13.2	0	0	---	0.00	30.426 
03:50	17.2	17.2	17.2	84	13.2	0	0	---	0.00	30.426 
03:55	17.0	17.0	17.0	84	13.0	0	0	---	0.00	30.426 
04:00	16.9	16.9	16.9	85	13.2	0	0	---	0.00	30.425 
04:05	16.7	16.7	16.7	85	13.0	0	0	---	0.00	30.425 
04:10	16.5	16.5	16.5	85	12.8	0	0	---	0.00	30.425 
04:15	16.5	16.5	16.5	85	12.8	0	0	---	0.00	30.430 
04:20	16.5	16.5	16.5	85	12.8	0	0	---	0.00	30.430 
04:25	16.5	16.5	16.5	85	12.8	0	0	---	0.00	30.430 
04:30	16.4	16.4	16.4	85	12.7	0	0	---	0.00	30.434 
04:35	16.2	16.2	16.2	86	12.8	0	0	---	0.00	30.434 
04:40	16.1	16.1	16.1	86	12.7	0	0	---	0.00	30.434 
04:45	15.9	15.9	15.9	86	12.5	0	0	---	0.00	30.431 
04:50	15.7	15.7	15.7	86	12.3	0	0	---	0.00	30.431 
04:55	15.6	15.6	15.6	86	12.2	0	0	---	0.00	30.431 
05:00	15.6	15.6	15.6	86	12.2	0	0	---	0.00	30.440 
05:05	15.6	15.6	15.6	86	12.2	0	0	---	0.00	30.440 
05:10	15.4	15.4	15.4	86	12.0	0	0	---	0.00	30.440 
05:15	15.4	15.4	15.4	86	12.0	0	0	---	0.00	30.449 
05:20	15.2	15.2	15.2	86	11.8	0	0	---	0.00	30.449 
05:25	15.1	15.1	15.1	86	11.7	0	0	---	0.00	30.449 
05:30	15.1	15.1	15.1	86	11.7	0	0	---	0.00	30.448 
05:35	14.9	14.9	14.9	86	11.5	0	0	---	0.00	30.448 
05:40	14.8	14.8	14.8	86	11.4	0	0	---	0.00	30.448 
05:45	14.8	14.8	14.8	87	11.6	0	0	---	0.00	30.446 
05:50	14.8	14.8	14.8	87	11.6	0	0	---	0.00	30.446 
05:55	15.1	15.1	15.1	88	12.2	0	1	270	0.00	30.446 
06:00	15.9	15.9	15.9	89	13.2	0	2	270	0.00	30.432 
06:05	17.3	17.3	17.3	89	14.6	1	4	270	0.00	30.432 
06:10	18.3	18.3	18.3	89	15.6	1	4	90	0.00	30.432 
06:15	18.8	18.8	18.8	88	15.8	1	4	90	0.00	30.422 
06:20	18.9	18.9	18.9	88	15.9	2	5	90	0.00	30.422 
06:25	19.1	19.1	19.1	88	16.1	2	5	90	0.00	30.422 
06:30	19.2	19.2	19.2	87	16.0	1	5	90	0.00	30.427 
06:35	19.4	19.4	19.4	86	15.9	1	4	68	0.00	30.427 
06:40	19.4	19.4	19.4	85	15.6	1	3	68	0.00	30.427 
06:45	19.4	19.4	19.4	84	15.4	0	2	68	0.00	30.430 
06:50	19.4	19.4	19.4	84	15.4	0	2	68	0.00	30.430 
06:55	19.2	19.2	19.2	83	14.9	0	0	---	0.00	30.430 
07:00	19.1	19.1	19.1	83	14.8	0	0	---	0.00	30.429 
07:05	18.8	18.8	18.8	83	14.5	0	0	---	0.00	30.429 
07:10	18.4	18.4	18.4	82	13.8	0	0	---	0.00	30.429 
07:15	18.1	18.1	18.1	83	13.8	0	1	68	0.00	30.423 
07:20	18.1	18.1	18.1	83	13.8	0	2	68	0.00	30.423 
07:25	18.4	18.4	18.4	83	14.1	0	1	68	0.00	30.423 
07:30	18.8	18.8	18.8	82	14.2	0	1	68	0.00	30.424 
07:35	18.9	18.9	18.9	82	14.3	0	2	68	0.00	30.424 
07:40	18.9	18.9	18.9	81	14.1	0	2	68	0.00	30.424 
07:45	18.9	18.9	18.9	81	14.1	1	2	68	0.00	30.429 
07:50	19.1	19.1	19.1	81	14.2	1	2	68	0.00	30.429 
07:55	19.1	19.1	19.1	81	14.2	1	2	68	0.00	30.429 
08:00	19.2	19.2	19.2	81	14.3	0	2	68	0.00	30.432 
08:05	19.4	19.4	19.4	81	14.5	0	2	68	0.00	30.432 
08:10	19.4	19.4	19.4	81	14.5	0	1	68	0.00	30.432 
08:15	19.7	19.7	19.7	80	14.6	0	1	68	0.00	30.443 
08:20	19.9	19.9	19.9	80	14.7	0	0	---	0.00	30.443 
08:25	20.0	20.0	20.0	81	15.1	0	1	68	0.00	30.443 
08:30	20.6	20.6	20.6	79	15.1	0	2	68	0.00	30.454 
08:35	21.4	21.4	21.4	78	15.6	0	0	---	0.00	30.454 
08:40	22.1	22.1	22.1	77	16.0	0	0	---	0.00	30.454 
08:45	22.9	22.9	22.9	75	16.2	0	0	---	0.00	30.460 
08:50	23.3	23.3	23.3	73	15.9	0	1	68	0.00	30.460 
08:55	24.1	24.1	24.1	69	15.4	0	2	68	0.00	30.460 
09:00	24.2	24.2	24.2	67	14.8	0	1	68	0.00	30.473 
09:05	24.5	24.5	24.5	67	15.1	0	1	68	0.00	30.473 
09:10	24.7	24.7	24.7	66	15.0	0	2	68	0.00	30.473 
09:15	25.0	25.0	25.0	66	15.3	1	4	68	0.00	30.458 
09:20	25.3	25.3	25.3	65	15.2	1	3	68	0.00	30.458 
09:25	25.7	25.7	25.7	64	15.2	1	4	68	0.00	30.458 
09:30	26.0	26.0	26.0	63	15.2	1	2	68	0.00	30.449 
09:35	25.8	25.8	25.8	63	15.0	2	9	112	0.00	30.449 
09:40	26.0	26.0	26.0	63	15.2	1	3	112	0.00	30.449 
09:45	26.6	26.6	26.6	62	15.4	0	2	135	0.00	30.454 
09:50	27.5	27.5	27.5	60	15.5	1	4	135	0.00	30.454 
09:55	28.1	28.1	28.1	59	15.6	0	2	135	0.00	30.454 
10:00	28.7	28.7	28.7	58	15.8	1	5	112	0.00	30.443 
10:05	28.2	28.2	28.2	58	15.3	2	5	112	0.00	30.443 
10:10	28.2	28.2	28.2	58	15.3	1	4	90	0.00	30.443 
10:15	28.7	28.7	28.7	58	15.8	1	3	112	0.00	30.442 
10:20	28.8	28.8	28.8	57	15.5	2	4	112	0.00	30.442 
10:25	28.8	28.8	28.8	57	15.5	2	4	112	0.00	30.442 
10:30	29.0	29.0	29.0	57	15.7	1	3	112	0.00	30.445 
10:35	29.0	29.0	29.0	57	15.7	2	5	90	0.00	30.445 
10:40	29.1	29.1	29.1	56	15.4	1	5	112	0.00	30.445 
10:45	29.3	29.3	29.3	56	15.6	1	3	112	0.00	30.449 
10:50	29.5	29.5	29.5	56	15.8	2	5	112	0.00	30.449 
10:55	29.5	29.5	29.5	57	16.2	2	5	112	0.00	30.449 
11:00	29.8	29.8	29.8	56	16.0	1	3	112	0.00	30.454 
11:05	30.1	30.1	30.1	55	15.9	1	3	135	0.00	30.454 
11:10	30.0	30.0	30.0	55	15.8	2	6	90	0.00	30.454 
11:15	30.0	30.0	30.0	56	16.2	2	5	90	0.00	30.457 
11:20	30.3	30.3	30.3	55	16.1	2	6	112	0.00	30.457 
11:25	30.6	30.6	30.6	55	16.4	1	3	112	0.00	30.457 
11:30	30.9	30.9	30.9	55	16.7	2	5	68	0.00	30.446 
11:35	31.0	31.0	31.0	55	16.8	2	5	112	0.00	30.446 
11:40	30.7	30.7	30.7	55	16.5	2	4	90	0.00	30.446 
11:45	30.1	30.1	30.1	56	16.3	3	6	112	0.00	30.442 
11:50	29.8	29.8	29.8	58	16.8	2	7	112	0.00	30.442 
11:55	30.1	30.1	30.1	58	17.1	1	4	68	0.00	30.442 
12:00	30.6	30.6	30.6	56	16.8	2	5	112	0.00	30.441 
12:05	30.7	30.7	30.7	55	16.5	2	4	112	0.00	30.441 
12:10	30.9	30.9	30.9	55	16.7	2	4	90	0.00	30.441 
12:15	31.0	31.0	31.0	56	17.2	1	3	90	0.00	30.439 
12:20	31.2	31.2	31.2	55	16.9	1	4	112	0.00	30.439 
12:25	30.9	30.9	30.9	56	17.1	3	7	112	0.00	30.439 
12:30	30.9	30.9	30.9	57	17.5	2	4	90	0.00	30.421 
12:35	31.0	31.0	31.0	57	17.6	2	9	112	0.00	30.421 
12:40	31.0	31.0	31.0	57	17.6	2	5	90	0.00	30.421 
12:45	30.9	30.9	30.9	58	17.9	2	5	90	0.00	30.418 
12:50	31.0	31.0	31.0	57	17.6	2	4	112	0.00	30.418 
12:55	31.0	31.0	31.0	57	17.6	2	4	90	0.00	30.418 
13:00	31.5	31.5	31.5	55	17.2	2	6	90	0.00	30.409 
13:05	31.5	31.5	31.5	56	17.6	2	5	112	0.00	30.409 
13:10	31.6	31.6	31.6	57	18.1	2	5	135	0.00	30.409 
13:15	31.8	31.8	31.8	56	17.9	1	5	90	0.00	30.406 
13:20	31.8	31.8	31.8	56	17.9	2	7	112	0.00	30.406 
13:25	31.8	31.8	31.8	57	18.3	2	5	90	0.00	30.406 
13:30	31.8	31.8	31.8	57	18.3	2	6	90	0.00	30.397 
13:35	31.8	31.8	31.8	58	18.7	2	6	90	0.00	30.397 
13:40	32.2	32.2	32.2	57	18.7	1	3	112	0.00	30.397 
13:45	32.4	32.4	32.4	57	18.9	2	5	90	0.00	30.397 
13:50	32.4	32.4	32.4	57	18.9	2	5	90	0.00	30.397 
13:55	32.5	32.5	32.5	58	19.4	2	5	112	0.00	30.397 
14:00	32.2	32.2	32.2	58	19.1	3	7	112	0.00	30.395 
14:05	32.4	32.4	32.4	59	19.7	2	5	90	0.00	30.395 
14:10	32.5	32.5	32.5	59	19.8	3	5	90	0.00	30.395 
14:15	32.4	32.4	32.4	58	19.3	3	6	90	0.00	30.393 
14:20	32.2	32.2	32.2	60	19.9	3	7	112	0.00	30.393 
14:25	32.1	32.1	32.1	60	19.8	3	7	112	0.00	30.393 
14:30	32.2	32.2	32.2	60	19.9	2	6	112	0.00	30.385 
14:35	32.4	28.5	32.4	59	19.7	4	6	90	0.00	30.385 
14:40	32.4	32.4	32.4	59	19.7	3	5	112	0.00	30.385 
14:45	32.4	32.4	32.4	60	20.1	2	6	112	0.00	30.383 
14:50	32.7	32.7	32.7	62	21.1	3	7	90	0.00	30.383 
14:55	32.7	32.7	32.7	62	21.1	3	7	90	0.00	30.383 
15:00	32.7	32.7	32.7	62	21.1	2	5	90	0.00	30.379 
15:05	32.7	32.7	32.7	63	21.5	2	5	112	0.00	30.379 
15:10	32.4	28.5	32.4	64	21.6	4	9	112	0.00	30.379 
15:15	32.4	28.5	32.4	65	22.0	4	8	112	0.00	30.356 
15:20	32.5	32.5	32.5	64	21.7	2	6	112	0.00	30.356 
15:25	32.8	32.8	32.8	64	22.0	1	3	90	0.00	30.356 
15:30	33.2	33.2	33.2	63	22.0	2	5	90	0.00	30.361 
15:35	33.4	33.4	33.4	62	21.8	2	7	90	0.00	30.361 
15:40	33.4	33.4	33.4	62	21.8	3	7	112	0.00	30.361 
15:45	33.1	28.4	33.1	62	21.5	5	9	90	0.00	30.350 
15:50	33.1	33.1	33.1	62	21.5	3	10	90	0.00	30.350 
15:55	33.4	33.4	33.4	63	22.2	2	5	112	0.00	30.350 
16:00	33.4	33.4	33.4	62	21.8	3	7	90	0.00	30.343 
16:05	33.4	33.4	33.4	63	22.2	3	8	112	0.00	30.343 
16:10	33.4	33.4	33.4	63	22.2	2	5	112	0.00	30.343 
16:15	33.4	33.4	33.4	63	22.2	1	3	112	0.00	30.353 
16:20	33.4	33.4	33.4	62	21.8	1	3	90	0.00	30.353 
16:25	33.4	33.4	33.4	61	21.4	2	7	90	0.00	30.353 
16:30	33.4	33.4	33.4	62	21.8	2	5	112	0.00	30.339 
16:35	33.4	33.4	33.4	62	21.8	2	5	112	0.00	30.339 
16:40	33.4	33.4	33.4	61	21.4	2	10	112	0.00	30.339 
16:45	33.5	33.5	33.5	61	21.5	2	5	90	0.00	30.332 
16:50	33.5	33.5	33.5	61	21.5	2	6	112	0.00	30.332 
16:55	33.5	33.5	33.5	62	21.9	2	6	112	0.00	30.332 
17:00	33.5	33.5	33.5	62	21.9	2	7	112	0.00	30.316 
17:05	33.5	33.5	33.5	63	22.3	1	3	135	0.00	30.316 
17:10	33.4	33.4	33.4	63	22.2	2	6	112	0.00	30.316 
17:15	33.2	33.2	33.2	65	22.7	2	5	90	0.00	30.311 
17:20	33.2	33.2	33.2	65	22.7	1	4	90	0.00	30.311 
17:25	33.1	33.1	33.1	65	22.6	1	4	90	0.00	30.311 
17:30	33.1	33.1	33.1	65	22.6	1	3	112	0.00	30.307 
17:35	33.1	33.1	33.1	65	22.6	1	3	112	0.00	30.307 
17:40	33.1	33.1	33.1	65	22.6	1	2	112	0.00	30.307 
17:45	32.9	32.9	32.9	66	22.8	1	4	68	0.00	30.293 
17:50	32.9	32.9	32.9	66	22.8	1	4	68	0.00	30.293 
17:55	32.8	32.8	32.8	66	22.7	0	1	68	0.00	30.293 
18:00	32.8	32.8	32.8	66	22.7	1	4	90	0.00	30.307 
18:05	32.7	32.7	32.7	67	23.0	1	4	90	0.00	30.307 
18:10	32.5	32.5	32.5	67	22.8	0	4	90	0.00	30.307 
18:15	32.5	32.5	32.5	67	22.8	0	2	90	0.00	30.304 
18:20	32.4	32.4	32.4	68	23.0	0	3	90	0.00	30.304 
18:25	32.2	32.2	32.2	69	23.2	0	1	90	0.00	30.304 
18:30	32.1	32.1	32.1	69	23.1	0	3	90	0.00	30.290 
18:35	31.9	31.9	31.9	69	22.9	0	1	90	0.00	30.290 
18:40	31.9	31.9	31.9	69	22.9	0	1	90	0.00	30.290 
18:45	31.8	31.8	31.8	70	23.2	0	1	202	0.00	30.287 
18:50	31.8	31.8	31.8	70	23.2	0	1	180	0.00	30.287 
18:55	31.6	31.6	31.6	70	23.0	0	1	180	0.00	30.287 
19:00	31.5	31.5	31.5	70	22.9	0	0	---	0.00	30.283 
19:05	31.5	31.5	31.5	71	23.2	0	2	180	0.00	30.283 
19:10	31.3	31.3	31.3	71	23.0	0	1	180	0.00	30.283 
19:15	31.5	31.5	31.5	71	23.2	0	1	180	0.00	30.274 
19:20	31.5	31.5	31.5	72	23.5	0	1	180	0.00	30.274 
19:25	31.5	31.5	31.5	72	23.5	1	3	180	0.00	30.274 
19:30	31.6	31.6	31.6	72	23.6	1	2	112	0.00	30.262 
19:35	31.6	31.6	31.6	72	23.6	0	2	112	0.00	30.262 
19:40	31.6	31.6	31.6	72	23.6	0	3	112	0.00	30.262 
19:45	31.6	31.6	31.6	72	23.6	0	1	112	0.00	30.257 
19:50	31.6	31.6	31.6	72	23.6	0	2	112	0.00	30.257 
19:55	31.6	31.6	31.6	73	24.0	1	3	112	0.00	30.257 
20:00	31.5	31.5	31.5	73	23.9	1	3	112	0.00	30.241 
20:05	31.3	31.3	31.3	73	23.7	0	2	112	0.00	30.241 
20:10	31.2	31.2	31.2	74	23.9	0	2	112	0.00	30.241 
20:15	31.2	31.2	31.2	74	23.9	0	1	112	0.00	30.236 
20:20	31.0	31.0	31.0	74	23.7	0	2	112	0.00	30.236 
20:25	30.9	30.9	30.9	74	23.6	0	2	112	0.00	30.236 
20:30	30.9	30.9	30.9	75	23.9	0	1	112	0.00	30.226 
20:35	30.9	30.9	30.9	75	23.9	0	2	112	0.00	30.226 
20:40	30.7	30.7	30.7	75	23.7	0	1	112	0.00	30.226 
20:45	30.7	30.7	30.7	75	23.7	0	0	---	0.00	30.226 
20:50	30.6	30.6	30.6	75	23.6	0	1	112	0.00	30.226 
20:55	30.4	30.4	30.4	75	23.4	0	0	---	0.00	30.226 
21:00	30.3	30.3	30.3	75	23.3	0	0	---	0.00	30.220 
21:05	30.1	30.1	30.1	76	23.5	0	0	---	0.00	30.220 
21:10	29.8	29.8	29.8	77	23.5	0	0	---	0.00	30.220 
21:15	29.7	29.7	29.7	77	23.4	0	0	---	0.00	30.203 
21:20	29.5	29.5	29.5	78	23.5	0	1	112	0.00	30.203 
21:25	29.5	29.5	29.5	78	23.5	0	0	---	0.00	30.203 
21:30	29.5	29.5	29.5	78	23.5	0	1	112	0.00	30.190 
21:35	29.5	29.5	29.5	79	23.8	0	0	---	0.00	30.190 
21:40	29.7	29.7	29.7	79	24.0	0	2	112	0.00	30.190 
21:45	29.7	29.7	29.7	79	24.0	0	1	112	0.00	30.184 
21:50	29.7	29.7	29.7	79	24.0	0	1	112	0.00	30.184 
21:55	29.7	29.7	29.7	79	24.0	1	2	112	0.00	30.184 
22:00	29.7	29.7	29.7	79	24.0	1	3	112	0.00	30.168 
22:05	29.7	29.7	29.7	79	24.0	1	3	112	0.00	30.168 
22:10	29.7	29.7	29.7	79	24.0	0	2	112	0.00	30.168 
22:15	29.7	29.7	29.7	79	24.0	1	2	112	0.00	30.165 
22:20	29.8	29.8	29.8	79	24.1	0	2	112	0.00	30.165 
22:25	29.7	29.7	29.7	79	24.0	0	1	112	0.00	30.165 
22:30	29.5	29.5	29.5	80	24.1	0	2	112	0.00	30.148 
22:35	29.7	29.7	29.7	80	24.3	0	2	112	0.00	30.148 
22:40	29.8	29.8	29.8	79	24.1	0	1	112	0.00	30.148 
22:45	30.0	30.0	30.0	79	24.3	0	1	112	0.00	30.149 
22:50	30.3	30.3	30.3	79	24.6	0	3	112	0.00	30.149 
22:55	30.7	30.7	30.7	77	24.4	0	2	135	0.00	30.149 
23:00	31.2	31.2	31.2	76	24.5	1	3	135	0.00	30.150 
23:05	31.8	31.8	31.8	75	24.8	1	4	112	0.00	30.150 
23:10	32.1	32.1	32.1	73	24.4	1	3	135	0.00	30.150 
23:15	32.4	32.4	32.4	73	24.7	0	3	90	0.00	30.149 
23:20	32.4	32.4	32.4	73	24.7	0	2	90	0.00	30.149 
23:25	32.2	32.2	32.2	72	24.2	0	2	90	0.00	30.149 
23:30	32.1	32.1	32.1	72	24.1	0	0	---	0.00	30.155 
23:35	31.8	31.8	31.8	73	24.1	0	0	---	0.00	30.155 
23:40	31.6	31.6	31.6	73	24.0	0	2	90	0.00	30.155 
23:45	31.9	31.9	31.9	72	23.9	1	4	90	0.00	30.147 
23:50	32.5	32.5	32.5	71	24.2	2	5	90	0.00	30.147 
23:55	32.8	32.8	32.8	70	24.1	1	3	68	0.00	30.147 

CoCoRaHS
IN-AL-39
A2 Web Hosting
Creative Commons License
GoDaddy
search engine by freefind advanced

loaded 2018-11-17 14:09:35 • last modified 2010-11-18 10:43:29
Privacy PolicyDisclaimer
• wx.awcolley.com is powered by PmWiki v.2002016 •
• all content (unless otherwise noted) © 2018 A W Colley